Terminal Aerodrome Forecast
Issued by NWS Lake Charles, LA

Home | Current Version | Previous Version | Text Only | Print | Product List | Glossary On
Versions: 1 2 3 4 5 6 7 8 9 10 11 12 13 14 15 16 17 18 19
000
FTUS44 KLCH 282300
TAFARA
TAF
KARA 282338Z 2900/2924 36006KT P6SM -RA OVC007
     FM290500 36005KT 4SM BR OVC003
     FM291000 36004KT 2SM BR OVC002
     FM291500 02005KT 3SM BR OVC004
     FM292000 35004KT 5SM BR OVC010=

USA.gov is the U.S. government's official web portal to all federal, state and local government web resources and services.